Time;durP1;ratioP1;P1;durP2;ratioP2;P2;SDS_P1;SDS_P2;PMS_P1;PMS_P2;Temp;Humidity;BMP_temperature;BMP_pressure;BME280_temperature;BME280_humidity;BME280_pressure;Samples;Min_cycle;Max_cycle;Signal;HPM_P1;HPM_P2
2021/10/07 00:02:13;;;;;;;38.67;20.25;;;;;;;;;;5070921;28;20016;-65
2021/10/07 00:04:38;;;;;;;49.67;20.10;;;;;;;;;;5070126;28;20107;-63
2021/10/07 00:07:03;;;;;;;39.72;20.25;;;;;;;;;;5070645;28;20031;-63
2021/10/07 00:09:28;;;;;;;42.25;20.90;;;;;;;;;;5070277;28;20024;-65
2021/10/07 00:11:54;;;;;;;45.33;21.02;;;;;;;;;;5070447;28;20017;-63
2021/10/07 00:14:19;;;;;;;42.10;20.25;;;;;;;;;;5069990;28;20122;-64
2021/10/07 00:16:44;;;;;;;45.55;19.98;;;;;;;;;;5070348;28;20020;-63
2021/10/07 00:19:09;;;;;;;46.45;19.88;;;;;;;;;;5067603;28;20073;-64
2021/10/07 00:21:35;;;;;;;52.28;20.15;;;;;;;;;;5064057;28;20373;-64
2021/10/07 00:24:09;;;;;;;41.67;20.27;;;;;;;;;;5069743;28;20788;-65
2021/10/07 00:26:36;;;;;;;48.03;22.52;;;;;;;;;;5070454;28;20020;-64
2021/10/07 00:29:13;;;;;;;46.75;21.08;;;;;;;;;;5069995;28;20025;-65
2021/10/07 00:31:40;;;;;;;45.80;21.58;;;;;;;;;;5061542;28;20029;-66
2021/10/07 00:34:16;;;;;;;51.35;21.00;;;;;;;;;;5069597;28;20062;-65
2021/10/07 00:39:25;;;;;;;40.10;20.20;;;;;;;;;;5065982;28;20028;-64
2021/10/07 00:41:52;;;;;;;44.60;20.25;;;;;;;;;;5069504;28;20012;-65
2021/10/07 00:44:17;;;;;;;49.13;21.83;;;;;;;;;;5069915;28;20099;-66
2021/10/07 00:46:47;;;;;;;44.53;22.35;;;;;;;;;;5069385;28;20108;-65
2021/10/07 00:49:12;;;;;;;47.25;21.58;;;;;;;;;;5062368;28;20029;-65
2021/10/07 00:51:37;;;;;;;46.75;22.23;;;;;;;;;;5069022;28;20036;-66
2021/10/07 00:54:03;;;;;;;50.95;20.60;;;;;;;;;;5069691;28;20039;-65
2021/10/07 00:56:28;;;;;;;39.17;19.85;;;;;;;;;;5069663;28;20052;-65
2021/10/07 00:58:53;;;;;;;43.03;20.67;;;;;;;;;;5069825;28;20017;-65
2021/10/07 01:01:18;;;;;;;41.63;21.73;;;;;;;;;;5069710;28;20115;-65
2021/10/07 01:03:44;;;;;;;43.88;21.50;;;;;;;;;;5068692;28;20162;-65
2021/10/07 01:06:09;;;;;;;54.13;21.98;;;;;;;;;;5069918;28;20477;-65
2021/10/07 01:08:34;;;;;;;52.45;20.02;;;;;;;;;;5068750;28;20033;-66
2021/10/07 01:11:00;;;;;;;41.80;21.17;;;;;;;;;;5069953;28;20032;-65
2021/10/07 01:13:25;;;;;;;51.17;23.50;;;;;;;;;;5069440;28;20381;-65
2021/10/07 01:15:50;;;;;;;57.28;21.88;;;;;;;;;;5069698;28;20495;-66
2021/10/07 01:18:15;;;;;;;51.88;21.88;;;;;;;;;;5069735;28;20028;-66
2021/10/07 01:20:41;;;;;;;51.00;23.13;;;;;;;;;;5069705;28;20023;-66
2021/10/07 01:23:06;;;;;;;52.75;21.75;;;;;;;;;;5069378;28;20025;-65
2021/10/07 01:25:33;;;;;;;50.90;21.52;;;;;;;;;;5070016;28;20481;-66
2021/10/07 01:27:58;;;;;;;55.03;22.58;;;;;;;;;;5069511;28;20100;-65
2021/10/07 01:30:23;;;;;;;56.47;21.80;;;;;;;;;;5069054;28;20108;-65
2021/10/07 01:32:49;;;;;;;51.78;22.23;;;;;;;;;;5069076;28;20086;-65
2021/10/07 01:35:14;;;;;;;50.53;22.40;;;;;;;;;;5068778;28;20028;-65
2021/10/07 01:37:39;;;;;;;45.07;21.47;;;;;;;;;;5069689;28;20012;-66
2021/10/07 01:40:05;;;;;;;52.35;22.15;;;;;;;;;;5069465;28;20258;-66
2021/10/07 01:42:30;;;;;;;54.15;22.63;;;;;;;;;;5069404;28;20720;-65
2021/10/07 01:44:55;;;;;;;52.23;22.53;;;;;;;;;;5069385;28;20028;-65
2021/10/07 01:47:21;;;;;;;54.47;24.88;;;;;;;;;;5069255;28;20269;-65
2021/10/07 01:49:46;;;;;;;48.97;22.77;;;;;;;;;;5069788;28;20051;-64
2021/10/07 01:52:11;;;;;;;53.00;24.00;;;;;;;;;;5069314;28;20651;-65
2021/10/07 01:54:36;;;;;;;60.88;23.38;;;;;;;;;;5068896;28;20116;-65
2021/10/07 01:57:02;;;;;;;55.60;24.88;;;;;;;;;;5069072;28;20017;-66
2021/10/07 01:59:27;;;;;;;57.90;23.55;;;;;;;;;;5069468;28;20019;-65
2021/10/07 02:01:52;;;;;;;61.10;24.77;;;;;;;;;;5069040;28;20039;-65
2021/10/07 02:04:17;;;;;;;55.53;24.60;;;;;;;;;;5072395;28;20581;-69
2021/10/07 02:06:42;;;;;;;58.67;24.80;;;;;;;;;;5073160;28;20040;-64
2021/10/07 02:09:08;;;;;;;53.50;23.50;;;;;;;;;;5072999;28;20020;-65
2021/10/07 02:11:33;;;;;;;54.20;22.75;;;;;;;;;;5072859;28;20743;-65
2021/10/07 02:14:00;;;;;;;61.25;25.70;;;;;;;;;;5072110;28;20021;-65
2021/10/07 02:16:25;;;;;;;71.40;25.63;;;;;;;;;;5072920;28;20040;-65
2021/10/07 02:18:51;;;;;;;58.85;25.40;;;;;;;;;;5072717;28;20024;-66
2021/10/07 02:21:16;;;;;;;58.60;24.33;;;;;;;;;;5072624;28;20043;-65
2021/10/07 02:23:41;;;;;;;64.87;23.77;;;;;;;;;;5072232;28;20267;-66
2021/10/07 02:26:06;;;;;;;65.70;25.30;;;;;;;;;;5072365;28;20341;-64
2021/10/07 02:28:31;;;;;;;60.35;24.88;;;;;;;;;;5072107;28;20263;-65
2021/10/07 02:30:58;;;;;;;60.75;24.48;;;;;;;;;;5072704;28;20117;-65
2021/10/07 02:33:23;;;;;;;62.80;25.73;;;;;;;;;;5071671;28;20027;-65
2021/10/07 02:35:48;;;;;;;69.65;27.13;;;;;;;;;;5071947;28;20024;-65
2021/10/07 02:38:14;;;;;;;63.93;27.13;;;;;;;;;;5072458;28;20377;-64
2021/10/07 02:40:39;;;;;;;61.43;25.33;;;;;;;;;;5072359;28;20358;-65
2021/10/07 02:43:04;;;;;;;70.07;25.87;;;;;;;;;;5071522;28;20262;-65
2021/10/07 02:45:29;;;;;;;60.30;25.33;;;;;;;;;;5072143;28;20274;-66
2021/10/07 02:47:54;;;;;;;64.57;25.17;;;;;;;;;;5072678;28;20342;-65
2021/10/07 02:50:21;;;;;;;66.20;26.30;;;;;;;;;;5072269;28;20105;-66
2021/10/07 02:52:46;;;;;;;67.80;26.27;;;;;;;;;;5072025;28;20024;-66
2021/10/07 02:55:12;;;;;;;70.97;25.83;;;;;;;;;;5071704;28;20021;-65
2021/10/07 02:57:38;;;;;;;71.47;25.98;;;;;;;;;;5071667;28;20476;-65
2021/10/07 03:00:05;;;;;;;61.60;25.15;;;;;;;;;;5072310;28;20107;-66
2021/10/07 03:02:30;;;;;;;67.30;25.88;;;;;;;;;;5071740;28;20024;-65
2021/10/07 03:04:55;;;;;;;52.90;25.00;;;;;;;;;;5071694;28;20552;-65
2021/10/07 03:07:20;;;;;;;66.20;25.20;;;;;;;;;;5063130;28;20028;-65
2021/10/07 03:09:45;;;;;;;64.82;25.75;;;;;;;;;;5071787;28;20262;-66
2021/10/07 03:12:11;;;;;;;50.47;23.92;;;;;;;;;;5071051;28;20376;-65
2021/10/07 03:14:39;;;;;;;69.45;25.27;;;;;;;;;;5070866;28;20639;-65
2021/10/07 03:17:05;;;;;;;59.13;25.75;;;;;;;;;;5071506;28;20016;-65
2021/10/07 03:19:30;;;;;;;62.25;24.77;;;;;;;;;;5071344;28;20402;-66
2021/10/07 03:21:55;;;;;;;64.27;26.77;;;;;;;;;;5071489;28;20016;-66
2021/10/07 03:24:20;;;;;;;66.05;24.65;;;;;;;;;;5069420;28;20785;-65
2021/10/07 03:26:45;;;;;;;63.77;25.40;;;;;;;;;;5071111;28;20442;-64
2021/10/07 03:29:10;;;;;;;68.95;25.23;;;;;;;;;;5071572;28;20274;-65
2021/10/07 03:31:37;;;;;;;60.07;25.53;;;;;;;;;;5071376;28;20033;-65
2021/10/07 03:34:02;;;;;;;66.47;25.35;;;;;;;;;;5071174;28;20281;-65
2021/10/07 03:36:27;;;;;;;69.45;25.23;;;;;;;;;;5071254;28;20021;-65
2021/10/07 03:38:52;;;;;;;74.18;27.10;;;;;;;;;;5071364;28;20017;-65
2021/10/07 03:41:17;;;;;;;72.45;27.67;;;;;;;;;;5070434;28;20024;-66
2021/10/07 03:43:43;;;;;;;78.68;28.50;;;;;;;;;;5070446;28;20021;-65
2021/10/07 03:46:08;;;;;;;72.43;27.48;;;;;;;;;;5070456;28;20021;-63
2021/10/07 03:48:33;;;;;;;81.10;29.00;;;;;;;;;;5070697;28;20028;-66
2021/10/07 03:50:58;;;;;;;79.27;29.53;;;;;;;;;;5071025;28;20393;-66
2021/10/07 03:53:25;;;;;;;76.20;29.50;;;;;;;;;;5070255;28;20373;-65
2021/10/07 03:55:50;;;;;;;82.55;29.48;;;;;;;;;;5069244;28;20278;-66
2021/10/07 03:58:16;;;;;;;73.63;27.83;;;;;;;;;;5069851;28;20388;-66
2021/10/07 04:00:41;;;;;;;81.17;28.73;;;;;;;;;;5068609;28;20046;-64
2021/10/07 04:03:06;;;;;;;74.95;28.13;;;;;;;;;;5069037;28;20353;-63
2021/10/07 04:05:31;;;;;;;88.13;31.38;;;;;;;;;;5070602;28;20051;-64
2021/10/07 04:07:56;;;;;;;71.00;27.93;;;;;;;;;;5070832;28;20111;-63
2021/10/07 04:10:22;;;;;;;78.68;28.85;;;;;;;;;;5070040;28;20280;-66
2021/10/07 04:12:47;;;;;;;79.80;28.20;;;;;;;;;;5070320;28;20095;-64
2021/10/07 04:15:12;;;;;;;77.57;29.33;;;;;;;;;;5070302;28;20101;-66
2021/10/07 04:17:37;;;;;;;75.90;28.67;;;;;;;;;;5070221;28;20287;-65
2021/10/07 04:20:03;;;;;;;76.15;28.42;;;;;;;;;;5070526;28;20669;-66
2021/10/07 04:22:28;;;;;;;81.20;29.42;;;;;;;;;;5069985;28;21036;-66
2021/10/07 04:24:55;;;;;;;84.07;28.80;;;;;;;;;;5070289;28;20070;-66
2021/10/07 04:27:21;;;;;;;75.38;29.50;;;;;;;;;;5069147;28;20259;-66
2021/10/07 04:29:46;;;;;;;77.15;29.58;;;;;;;;;;5068584;28;20104;-66
2021/10/07 04:32:11;;;;;;;76.97;28.57;;;;;;;;;;5068371;28;20017;-66
2021/10/07 04:34:36;;;;;;;78.30;29.27;;;;;;;;;;5065801;28;20259;-66
2021/10/07 04:37:02;;;;;;;80.35;28.15;;;;;;;;;;5070510;28;20020;-66
2021/10/07 04:39:27;;;;;;;77.82;27.40;;;;;;;;;;5069788;28;20015;-66
2021/10/07 04:41:52;;;;;;;88.50;29.80;;;;;;;;;;5070277;28;20023;-65
2021/10/07 04:44:17;;;;;;;85.78;29.17;;;;;;;;;;5070085;28;21090;-64
2021/10/07 04:46:43;;;;;;;81.97;28.95;;;;;;;;;;5070392;28;20032;-64
2021/10/07 04:49:08;;;;;;;79.20;28.77;;;;;;;;;;5069540;28;20032;-64
2021/10/07 04:51:33;;;;;;;79.30;28.77;;;;;;;;;;5069505;28;20043;-64
2021/10/07 04:53:58;;;;;;;85.97;28.55;;;;;;;;;;5068281;28;20367;-63
2021/10/07 04:56:23;;;;;;;80.68;28.88;;;;;;;;;;5070004;28;20016;-64
2021/10/07 04:58:49;;;;;;;77.30;30.00;;;;;;;;;;5069920;28;20239;-66
2021/10/07 05:01:16;;;;;;;76.70;28.70;;;;;;;;;;5070090;28;20055;-64
2021/10/07 05:03:41;;;;;;;81.60;29.48;;;;;;;;;;5069556;28;20488;-66
2021/10/07 05:06:06;;;;;;;92.03;30.33;;;;;;;;;;5069732;28;20035;-64
2021/10/07 05:08:31;;;;;;;79.68;29.15;;;;;;;;;;5069638;28;20032;-64
2021/10/07 05:10:57;;;;;;;85.03;28.77;;;;;;;;;;5069648;28;20028;-63
2021/10/07 05:13:22;;;;;;;81.63;27.93;;;;;;;;;;5067776;28;20024;-68
2021/10/07 05:15:47;;;;;;;69.50;26.35;;;;;;;;;;5069452;28;21007;-64
2021/10/07 05:18:12;;;;;;;81.30;27.27;;;;;;;;;;5069324;28;20138;-66
2021/10/07 05:20:37;;;;;;;86.27;27.77;;;;;;;;;;5060416;28;20279;-66
2021/10/07 05:23:05;;;;;;;68.47;25.57;;;;;;;;;;5063957;28;20267;-64
2021/10/07 05:25:30;;;;;;;70.50;27.23;;;;;;;;;;5066293;28;20350;-64
2021/10/07 05:27:55;;;;;;;78.82;26.73;;;;;;;;;;5067683;28;20103;-65
2021/10/07 05:30:20;;;;;;;69.60;25.87;;;;;;;;;;5067081;28;20028;-64
2021/10/07 05:32:45;;;;;;;76.70;26.00;;;;;;;;;;5062498;28;20994;-65
2021/10/07 05:35:10;;;;;;;80.22;27.30;;;;;;;;;;5066664;28;20259;-64
2021/10/07 05:37:36;;;;;;;76.28;26.70;;;;;;;;;;5070454;28;20098;-65
2021/10/07 05:40:01;;;;;;;63.63;25.57;;;;;;;;;;5073350;28;20017;-64
2021/10/07 05:42:26;;;;;;;72.15;25.05;;;;;;;;;;5072942;28;20293;-67
2021/10/07 05:44:51;;;;;;;67.93;26.35;;;;;;;;;;5073316;28;20028;-66
2021/10/07 05:47:16;;;;;;;69.90;26.13;;;;;;;;;;5073032;28;20017;-64
2021/10/07 05:49:42;;;;;;;73.90;26.60;;;;;;;;;;5072874;28;20255;-66
2021/10/07 05:52:07;;;;;;;64.15;25.77;;;;;;;;;;5073197;28;20266;-66
2021/10/07 05:54:32;;;;;;;74.85;25.63;;;;;;;;;;5072476;28;20024;-65
2021/10/07 05:56:57;;;;;;;74.70;26.83;;;;;;;;;;5072691;28;20024;-66
2021/10/07 05:59:23;;;;;;;83.55;29.17;;;;;;;;;;5071940;28;20023;-66
2021/10/07 06:01:48;;;;;;;85.55;28.45;;;;;;;;;;5070702;28;20656;-66
2021/10/07 06:04:13;;;;;;;83.30;28.38;;;;;;;;;;5072761;28;20024;-67
2021/10/07 06:06:38;;;;;;;88.73;29.00;;;;;;;;;;5073065;28;20036;-67
2021/10/07 06:09:07;;;;;;;82.83;28.37;;;;;;;;;;5073167;28;20290;-66
2021/10/07 06:11:32;;;;;;;91.95;26.45;;;;;;;;;;5072422;28;20270;-65
2021/10/07 06:13:57;;;;;;;86.30;27.10;;;;;;;;;;5070773;28;20024;-66
2021/10/07 06:16:23;;;;;;;85.35;27.67;;;;;;;;;;5063130;28;20020;-64
2021/10/07 06:18:49;;;;;;;101.38;28.60;;;;;;;;;;5072524;28;20023;-65
2021/10/07 06:21:15;;;;;;;102.97;30.92;;;;;;;;;;5071566;28;20020;-64
2021/10/07 06:23:42;;;;;;;109.37;30.87;;;;;;;;;;5072622;28;20024;-65
2021/10/07 06:26:08;;;;;;;126.57;31.73;;;;;;;;;;5073187;28;20266;-65
2021/10/07 06:28:33;;;;;;;113.72;31.40;;;;;;;;;;5072456;28;20370;-64
2021/10/07 06:30:58;;;;;;;120.07;32.95;;;;;;;;;;5072981;28;20024;-65
2021/10/07 06:33:24;;;;;;;108.95;31.55;;;;;;;;;;5071583;28;20028;-64
2021/10/07 06:35:49;;;;;;;129.00;33.07;;;;;;;;;;5072483;28;20504;-65
2021/10/07 06:38:14;;;;;;;125.45;33.00;;;;;;;;;;5072906;28;20262;-64
2021/10/07 06:40:39;;;;;;;112.88;29.77;;;;;;;;;;5072913;28;20081;-67
2021/10/07 06:43:04;;;;;;;111.68;31.27;;;;;;;;;;5070852;28;20105;-66
2021/10/07 06:45:30;;;;;;;122.88;31.70;;;;;;;;;;5070852;28;20028;-68
2021/10/07 06:47:55;;;;;;;115.90;31.00;;;;;;;;;;5071457;28;20032;-67
2021/10/07 06:50:20;;;;;;;126.28;32.58;;;;;;;;;;5070685;28;20303;-67
2021/10/07 06:52:45;;;;;;;128.32;33.80;;;;;;;;;;5071027;28;20028;-67
2021/10/07 06:55:11;;;;;;;118.95;32.08;;;;;;;;;;5071563;28;20115;-67
2021/10/07 06:57:39;;;;;;;118.00;34.80;;;;;;;;;;5071909;28;20023;-67
2021/10/07 07:00:05;;;;;;;226.38;34.47;;;;;;;;;;5070219;28;20412;-67
2021/10/07 07:02:31;;;;;;;145.93;34.03;;;;;;;;;;5070789;28;20107;-68
2021/10/07 07:04:56;;;;;;;129.25;32.10;;;;;;;;;;5072208;28;20153;-67
2021/10/07 07:07:21;;;;;;;108.97;33.37;;;;;;;;;;5069211;28;20020;-68
2021/10/07 07:09:46;;;;;;;160.18;32.63;;;;;;;;;;5069702;28;20269;-68
2021/10/07 07:12:11;;;;;;;130.57;31.27;;;;;;;;;;5070834;28;20016;-66
2021/10/07 07:14:37;;;;;;;118.80;31.50;;;;;;;;;;5069261;28;20385;-65
2021/10/07 07:17:02;;;;;;;230.73;28.63;;;;;;;;;;5071273;28;20032;-66
2021/10/07 07:19:27;;;;;;;141.00;30.42;;;;;;;;;;5071420;28;20040;-64
2021/10/07 07:21:52;;;;;;;129.75;29.17;;;;;;;;;;5071462;28;20017;-65
2021/10/07 07:24:18;;;;;;;144.80;27.07;;;;;;;;;;5071798;28;20020;-65
2021/10/07 07:26:43;;;;;;;90.30;26.60;;;;;;;;;;5071484;28;20334;-65
2021/10/07 07:29:09;;;;;;;84.28;27.05;;;;;;;;;;5071950;28;20727;-65
2021/10/07 07:31:34;;;;;;;66.80;24.52;;;;;;;;;;5070549;28;20020;-65
2021/10/07 07:34:01;;;;;;;61.67;23.47;;;;;;;;;;5071419;28;20032;-65
2021/10/07 07:36:26;;;;;;;53.10;22.88;;;;;;;;;;5071651;28;20631;-66
2021/10/07 07:38:52;;;;;;;77.07;26.17;;;;;;;;;;5071802;28;20012;-64
2021/10/07 07:41:18;;;;;;;53.53;22.05;;;;;;;;;;5071808;28;20021;-65
2021/10/07 07:43:43;;;;;;;63.95;24.83;;;;;;;;;;5071498;28;20016;-65
2021/10/07 07:46:09;;;;;;;79.97;24.90;;;;;;;;;;5071683;28;20388;-64
2021/10/07 07:48:34;;;;;;;67.80;22.30;;;;;;;;;;5071682;28;20507;-64
2021/10/07 07:50:59;;;;;;;65.72;25.25;;;;;;;;;;5071141;28;20024;-67
2021/10/07 07:53:24;;;;;;;71.95;28.17;;;;;;;;;;5070970;28;20021;-64
2021/10/07 07:55:50;;;;;;;75.85;29.38;;;;;;;;;;5071634;28;20028;-65
2021/10/07 07:58:17;;;;;;;73.50;27.25;;;;;;;;;;5071411;28;20044;-64
2021/10/07 08:00:42;;;;;;;74.93;26.45;;;;;;;;;;5071170;28;20048;-65
2021/10/07 08:03:07;;;;;;;60.97;26.77;;;;;;;;;;5070825;28;20067;-65
2021/10/07 08:05:32;;;;;;;62.13;24.27;;;;;;;;;;5070809;28;20032;-65
2021/10/07 08:07:58;;;;;;;63.35;23.50;;;;;;;;;;5071045;28;20027;-65
2021/10/07 08:10:23;;;;;;;59.65;23.52;;;;;;;;;;5071027;28;20032;-65
2021/10/07 08:12:48;;;;;;;62.92;25.67;;;;;;;;;;5070678;28;20024;-64
2021/10/07 08:15:13;;;;;;;54.20;20.13;;;;;;;;;;5071150;28;20020;-65
2021/10/07 08:17:39;;;;;;;66.78;27.00;;;;;;;;;;5070618;28;20246;-68
2021/10/07 08:20:05;;;;;;;65.95;27.00;;;;;;;;;;5070810;28;20519;-64
2021/10/07 08:22:31;;;;;;;39.75;15.98;;;;;;;;;;5070445;28;20108;-65
2021/10/07 08:24:56;;;;;;;51.17;23.02;;;;;;;;;;5071015;28;20103;-67
2021/10/07 08:27:21;;;;;;;52.75;23.80;;;;;;;;;;5070977;28;20095;-68
2021/10/07 08:29:46;;;;;;;54.17;24.23;;;;;;;;;;5053371;28;20472;-65
2021/10/07 08:32:12;;;;;;;60.45;24.88;;;;;;;;;;5070434;28;20262;-67
2021/10/07 08:34:37;;;;;;;55.83;24.85;;;;;;;;;;5070372;28;20020;-66
2021/10/07 08:37:04;;;;;;;64.65;24.88;;;;;;;;;;5070275;28;20037;-67
2021/10/07 08:39:29;;;;;;;58.47;25.92;;;;;;;;;;5070802;28;20032;-67
2021/10/07 08:41:54;;;;;;;57.28;25.20;;;;;;;;;;5070520;28;20108;-68
2021/10/07 08:44:19;;;;;;;61.47;24.88;;;;;;;;;;5070379;28;20024;-68
2021/10/07 08:46:45;;;;;;;65.78;27.85;;;;;;;;;;5070808;28;20063;-67
2021/10/07 08:49:13;;;;;;;55.80;24.20;;;;;;;;;;5070340;28;20543;-66
2021/10/07 08:51:38;;;;;;;54.80;25.63;;;;;;;;;;5070609;28;20035;-68
2021/10/07 08:54:04;;;;;;;60.33;25.83;;;;;;;;;;5069629;28;20496;-64
2021/10/07 08:56:29;;;;;;;51.58;24.30;;;;;;;;;;5070516;28;20267;-66
2021/10/07 08:58:54;;;;;;;62.40;24.83;;;;;;;;;;5070517;28;20066;-67
2021/10/07 09:01:37;;;;;;;47.60;21.90;;;;;;;;;;5070321;28;20242;-66
2021/10/07 09:04:35;;;;;;;54.15;22.55;;;;;;;;;;5070026;28;20544;-65
2021/10/07 09:07:10;;;;;;;57.20;23.73;;;;;;;;;;5025528;28;20094;-65
2021/10/07 09:09:37;;;;;;;57.10;24.98;;;;;;;;;;5070360;28;20032;-67
2021/10/07 09:12:03;;;;;;;59.03;25.85;;;;;;;;;;5070356;28;20024;-65
2021/10/07 09:14:33;;;;;;;56.78;25.77;;;;;;;;;;5074441;28;20012;-66
2021/10/07 09:16:59;;;;;;;60.45;26.27;;;;;;;;;;5074118;28;20016;-65
2021/10/07 09:19:25;;;;;;;61.33;23.85;;;;;;;;;;5074405;28;20032;-66
2021/10/07 09:21:55;;;;;;;58.08;19.90;;;;;;;;;;5074266;28;20024;-65
2021/10/07 09:24:27;;;;;;;46.13;20.40;;;;;;;;;;5073488;28;20480;-65
2021/10/07 09:26:52;;;;;;;42.67;21.73;;;;;;;;;;5073259;28;20021;-66
2021/10/07 09:29:29;;;;;;;45.85;21.00;;;;;;;;;;5073250;28;20031;-66
2021/10/07 09:31:54;;;;;;;37.67;19.05;;;;;;;;;;5074007;28;20017;-65
2021/10/07 09:34:19;;;;;;;37.97;17.57;;;;;;;;;;5073832;28;20081;-65
2021/10/07 09:36:44;;;;;;;38.40;20.03;;;;;;;;;;5073643;28;20302;-64
2021/10/07 09:39:09;;;;;;;40.27;20.50;;;;;;;;;;5073660;28;20324;-65
2021/10/07 09:41:35;;;;;;;43.87;20.00;;;;;;;;;;5056042;28;20626;-66
2021/10/07 09:44:01;;;;;;;49.47;22.48;;;;;;;;;;5073691;28;20297;-67
2021/10/07 09:46:44;;;;;;;41.67;23.13;;;;;;;;;;5073346;28;20047;-68
2021/10/07 09:49:11;;;;;;;44.35;25.85;;;;;;;;;;5057075;28;20224;-64
2021/10/07 09:51:41;;;;;;;44.28;25.17;;;;;;;;;;5064993;28;20028;-64
2021/10/07 09:54:06;;;;;;;46.03;24.65;;;;;;;;;;5065118;28;20100;-65
2021/10/07 09:56:32;;;;;;;49.42;24.00;;;;;;;;;;5073010;28;20107;-65
2021/10/07 09:59:03;;;;;;;42.95;19.17;;;;;;;;;;5073556;28;20013;-65
2021/10/07 10:01:29;;;;;;;42.55;20.02;;;;;;;;;;5073023;28;20023;-65
2021/10/07 10:03:54;;;;;;;28.17;14.07;;;;;;;;;;5072713;28;20016;-65
2021/10/07 10:06:19;;;;;;;33.53;18.00;;;;;;;;;;5073046;28;20044;-65
2021/10/07 10:08:44;;;;;;;33.17;14.73;;;;;;;;;;5069925;28;20031;-65
2021/10/07 10:11:10;;;;;;;34.17;16.58;;;;;;;;;;5072905;28;20579;-66
2021/10/07 10:13:35;;;;;;;33.70;17.40;;;;;;;;;;5073034;28;20060;-65
2021/10/07 10:16:00;;;;;;;42.95;21.23;;;;;;;;;;5073262;28;20017;-65
2021/10/07 10:18:26;;;;;;;42.35;20.20;;;;;;;;;;5068586;28;20025;-65
2021/10/07 10:20:52;;;;;;;55.85;26.58;;;;;;;;;;5067144;28;20473;-65
2021/10/07 10:23:19;;;;;;;40.05;22.85;;;;;;;;;;5072692;28;20036;-66
2021/10/07 10:25:58;;;;;;;43.78;23.40;;;;;;;;;;5073201;28;20013;-65
2021/10/07 10:28:52;;;;;;;36.30;19.60;;;;;;;;;;5073175;28;20073;-65
2021/10/07 10:31:19;;;;;;;41.65;19.25;;;;;;;;;;5058376;28;20040;-64
2021/10/07 10:33:48;;;;;;;42.75;21.70;;;;;;;;;;5056949;28;20478;-65
2021/10/07 10:36:27;;;;;;;44.10;18.85;;;;;;;;;;5060855;28;20100;-65
2021/10/07 10:38:58;;;;;;;40.05;21.05;;;;;;;;;;5066088;28;20027;-66
2021/10/07 10:41:41;;;;;;;37.33;17.67;;;;;;;;;;5073084;28;20020;-65
2021/10/07 10:44:26;;;;;;;31.63;17.30;;;;;;;;;;5072461;28;20016;-64
2021/10/07 10:47:00;;;;;;;33.70;17.02;;;;;;;;;;5072506;28;20032;-67
2021/10/07 10:49:36;;;;;;;33.67;17.40;;;;;;;;;;5072323;28;20024;-65
2021/10/07 10:52:02;;;;;;;28.02;15.45;;;;;;;;;;5072643;28;20021;-64
2021/10/07 10:54:30;;;;;;;29.05;15.23;;;;;;;;;;5072419;28;20031;-66
2021/10/07 10:56:57;;;;;;;28.75;14.18;;;;;;;;;;5072632;28;20099;-66
2021/10/07 10:59:23;;;;;;;23.98;13.80;;;;;;;;;;5072490;28;20021;-65
2021/10/07 11:02:07;;;;;;;21.98;11.90;;;;;;;;;;5072296;28;20021;-64
2021/10/07 11:04:46;;;;;;;16.35;10.32;;;;;;;;;;5071940;28;20034;-65
2021/10/07 11:07:15;;;;;;;17.30;10.73;;;;;;;;;;5071958;28;20394;-65
2021/10/07 11:10:01;;;;;;;15.18;5.47;;;;;;;;;;5072441;28;20118;-65
2021/10/07 11:12:31;;;;;;;15.95;9.80;;;;;;;;;;5071481;28;20032;-66
2021/10/07 11:14:56;;;;;;;17.10;10.15;;;;;;;;;;5072171;28;20024;-65
2021/10/07 11:17:22;;;;;;;19.07;8.50;;;;;;;;;;5072164;28;20662;-66
2021/10/07 11:19:47;;;;;;;22.90;11.07;;;;;;;;;;5071965;28;20278;-67
2021/10/07 11:22:13;;;;;;;17.17;8.73;;;;;;;;;;5071454;28;20069;-67
2021/10/07 11:24:51;;;;;;;18.85;9.82;;;;;;;;;;5071837;28;20028;-67
2021/10/07 11:27:49;;;;;;;15.27;7.90;;;;;;;;;;5071913;28;20016;-67
2021/10/07 11:30:17;;;;;;;19.83;10.50;;;;;;;;;;5037641;28;20036;-67
2021/10/07 11:32:43;;;;;;;19.20;5.20;;;;;;;;;;5071209;28;20115;-66
2021/10/07 11:35:10;;;;;;;9.43;5.10;;;;;;;;;;5070983;28;20222;-67
2021/10/07 11:37:55;;;;;;;20.05;9.48;;;;;;;;;;5071757;28;20016;-67
2021/10/07 11:40:27;;;;;;;17.08;8.90;;;;;;;;;;5056652;28;20021;-66
2021/10/07 11:42:53;;;;;;;19.48;7.30;;;;;;;;;;5071311;28;20025;-67
2021/10/07 11:45:18;;;;;;;16.15;8.07;;;;;;;;;;5071533;28;20033;-67
2021/10/07 11:47:43;;;;;;;16.45;9.02;;;;;;;;;;5065769;28;20055;-67
2021/10/07 11:50:09;;;;;;;12.80;6.43;;;;;;;;;;5070817;28;20056;-67
2021/10/07 11:52:36;;;;;;;10.40;5.75;;;;;;;;;;5071241;28;20254;-64
2021/10/07 11:55:02;;;;;;;13.73;7.03;;;;;;;;;;5071398;28;20103;-67
2021/10/07 11:57:27;;;;;;;10.23;6.93;;;;;;;;;;5057875;28;20108;-67
2021/10/07 11:59:52;;;;;;;12.88;7.13;;;;;;;;;;5066422;28;20092;-67
2021/10/07 12:02:18;;;;;;;10.83;6.13;;;;;;;;;;5050921;28;20107;-65
2021/10/07 12:04:43;;;;;;;13.10;7.10;;;;;;;;;;5060785;28;20035;-67
2021/10/07 12:07:15;;;;;;;9.30;5.50;;;;;;;;;;5070989;28;20254;-66
2021/10/07 12:09:43;;;;;;;15.30;5.68;;;;;;;;;;5070611;28;20262;-67
2021/10/07 12:12:08;;;;;;;11.93;6.45;;;;;;;;;;5059426;28;20066;-66
2021/10/07 12:14:34;;;;;;;9.00;6.03;;;;;;;;;;5070819;28;20415;-65
2021/10/07 12:16:59;;;;;;;10.32;6.60;;;;;;;;;;5055373;28;20028;-65
2021/10/07 12:19:27;;;;;;;10.35;5.75;;;;;;;;;;5062658;28;20044;-64
2021/10/07 12:21:56;;;;;;;11.90;4.82;;;;;;;;;;5070653;28;20031;-65
2021/10/07 12:24:25;;;;;;;9.60;4.43;;;;;;;;;;5065486;28;20021;-65
2021/10/07 12:26:52;;;;;;;14.67;6.37;;;;;;;;;;5063277;28;20103;-66
2021/10/07 12:29:19;;;;;;;14.13;6.35;;;;;;;;;;5070988;28;20767;-66
2021/10/07 12:31:48;;;;;;;14.40;5.55;;;;;;;;;;5070672;28;20032;-68
2021/10/07 12:34:14;;;;;;;9.23;5.47;;;;;;;;;;5070409;28;20385;-66
2021/10/07 12:36:44;;;;;;;13.55;6.20;;;;;;;;;;5070426;28;20021;-66
2021/10/07 12:39:28;;;;;;;10.15;5.75;;;;;;;;;;5070730;28;20043;-66
2021/10/07 12:41:55;;;;;;;10.73;6.75;;;;;;;;;;5070184;28;20031;-64
2021/10/07 12:44:21;;;;;;;16.38;7.70;;;;;;;;;;5070576;28;20025;-65
2021/10/07 12:46:48;;;;;;;9.98;6.15;;;;;;;;;;5069882;28;20500;-64
2021/10/07 12:49:13;;;;;;;10.95;6.43;;;;;;;;;;5070636;28;20030;-64
2021/10/07 12:51:43;;;;;;;7.93;5.32;;;;;;;;;;5070650;28;20021;-65
2021/10/07 12:54:08;;;;;;;;;;;;;;;;;;5070567;28;20396;-65
2021/10/07 12:56:39;;;;;;;13.35;6.25;;;;;;;;;;5070241;28;19992;-65
2021/10/07 12:59:05;;;;;;;14.73;6.03;;;;;;;;;;5070560;28;20490;-65
2021/10/07 13:01:36;;;;;;;10.13;5.90;;;;;;;;;;5070282;28;20016;-64
2021/10/07 13:04:14;;;;;;;8.82;5.75;;;;;;;;;;5069816;28;20020;-64
2021/10/07 13:06:40;;;;;;;13.05;6.35;;;;;;;;;;5052020;28;20107;-64
2021/10/07 13:09:06;;;;;;;10.30;6.32;;;;;;;;;;5070320;28;20044;-65
2021/10/07 13:11:31;;;;;;;10.93;5.85;;;;;;;;;;5070131;28;20118;-67
2021/10/07 13:13:57;;;;;;;11.50;6.72;;;;;;;;;;5069853;28;20017;-65
2021/10/07 13:16:23;;;;;;;11.43;6.78;;;;;;;;;;5070229;28;20013;-64
2021/10/07 13:18:48;;;;;;;12.48;5.88;;;;;;;;;;5069862;28;20024;-64
2021/10/07 13:21:13;;;;;;;11.68;6.07;;;;;;;;;;5069994;28;20012;-64
2021/10/07 13:23:38;;;;;;;13.10;5.05;;;;;;;;;;5069781;28;20021;-65
2021/10/07 13:26:07;;;;;;;10.23;6.13;;;;;;;;;;5070241;28;20070;-64
2021/10/07 13:28:32;;;;;;;15.20;6.15;;;;;;;;;;5070192;28;20266;-66
2021/10/07 13:30:57;;;;;;;11.55;6.00;;;;;;;;;;5070226;28;20654;-65
2021/10/07 13:33:25;;;;;;;12.03;4.13;;;;;;;;;;5069291;28;20163;-65
2021/10/07 13:35:51;;;;;;;10.13;6.10;;;;;;;;;;5069741;28;20336;-65
2021/10/07 13:38:21;;;;;;;11.98;6.28;;;;;;;;;;5069814;28;20088;-65
2021/10/07 13:40:47;;;;;;;17.02;6.05;;;;;;;;;;5069355;28;20526;-65
2021/10/07 13:43:12;;;;;;;8.90;5.72;;;;;;;;;;5069779;28;20025;-65
2021/10/07 13:45:37;;;;;;;11.05;6.32;;;;;;;;;;5069827;28;20047;-67
2021/10/07 13:48:02;;;;;;;11.47;4.90;;;;;;;;;;5069812;28;20021;-65
2021/10/07 13:50:28;;;;;;;13.02;6.28;;;;;;;;;;5069827;28;20251;-65
2021/10/07 13:52:53;;;;;;;12.30;5.65;;;;;;;;;;5069232;28;20665;-64
2021/10/07 13:55:20;;;;;;;10.63;5.35;;;;;;;;;;5069560;28;20107;-65
2021/10/07 13:57:45;;;;;;;10.00;6.30;;;;;;;;;;5069633;28;20032;-64
2021/10/07 14:00:11;;;;;;;13.38;6.28;;;;;;;;;;5073560;28;20408;-65
2021/10/07 14:02:36;;;;;;;10.70;6.50;;;;;;;;;;5073074;28;20082;-64
2021/10/07 14:05:01;;;;;;;13.73;6.55;;;;;;;;;;5073556;28;20013;-65
2021/10/07 14:07:26;;;;;;;10.30;6.17;;;;;;;;;;5073160;28;20020;-66
2021/10/07 14:09:52;;;;;;;11.18;6.47;;;;;;;;;;5073382;28;20254;-65
2021/10/07 14:12:17;;;;;;;10.13;6.10;;;;;;;;;;5072960;28;20021;-65
2021/10/07 14:14:42;;;;;;;7.90;5.73;;;;;;;;;;5072829;28;20020;-65
2021/10/07 14:17:07;;;;;;;11.18;5.60;;;;;;;;;;5073226;28;20255;-64
2021/10/07 14:19:32;;;;;;;9.77;4.43;;;;;;;;;;5073074;28;20016;-64